Aérodrome :
LOGIN :

S'inscrire | Disclaimer

   EN    FR    IT 

 










Légende :    VFR   VFR Marginal   IFR   IFR Intensif   IFR Très Intensif
Visi : 
Plafond : 
>= 8 km
>= 3000ft
5 à 8 km
1000 à 3000 ft
1500m à 5 km
500 à 1000 ft
800 à 1500m
200 à 500 ft
< 800m
< 200 ft
Symboles :   Orages  Brouillard  Fortes neiges  Fortes précipitations  Vent > 20 kt
SIGMETs :   Divers  Orages  Givrage  Turbulence  Onde Orograph.  Cendres Volcan.






- Altitude de l'aérodrome : 512 ft
- Code IATA : URO


LFOP - Rouen Vallée de Seine

DERNIER METAR :
  • 301000Z AUTO 27007KT 230V300 6000 ////// 07/07 Q1025

METARs EXPIRÉS :
  • 300900Z AUTO 26007KT 2200 -DZ BR OVC002 06/06 Q1025 BECMG 7000 NSW SCT020
  • 300830Z AUTO 26007KT 240V300 2300 -DZ BR OVC002 06/06 Q1025 BECMG 7000 NSW SCT020
  • 300800Z AUTO 24008KT 3400 BR OVC002 06/05 Q1024 TEMPO 2000 DZRA
  • 300730Z AUTO 25009KT 4100 -DZ BR OVC003 05/05 Q1024 TEMPO 2000 DZRA

TAF AMD TAF LFOP
Valide du 30 à 08h jusqu'au 31 à 06h UTC


300809Z 3008/3106 25010KT 7000 OVC006
TEMPO 3008/3010 2000 DZRA OVC002
BECMG 3010/3012 31010KT SCT020
BECMG 3017/3019 VRB03KT
ATIS : +33 2 35 80 80 34
Météo : +33 2 32 86 52 80



MET'MAP, la Météo Aéronautique d'un coup d'oeil ! - Copyright ORBIFLY Décembre 2007 - Disclaimer

ORBIFLY MET'MAP TEAM :

Programmation & Développement : Alexandra Zaïnal
Sur une idée originale de : Baudouin d'Aumeries
Soutien technique & logistique : Manuel Goepfert
Assistance : Marc-Olivier Méhu




SOURCES & CREDITS :

   NOAA